Fayetteville, AR (72703)

8:51 PM CST on February 01, 2015 (GMT -0600)
Porter Road, Fayetteville | Change Station
CLOSE
Current Station
Personal Weather Station
Location: Fayetteville, AR
Elevation: 1260 ft
Nearby Weather Stations

Elev 1260 ft 36.08 °N, 94.19 °W | Updated 3 seconds ago

Overcast
Overcast
21.6 °F
Feels Like 10 °F
N
11.4
Wind Variable Wind from West
Gusts 17.4 mph

Today
High -- | Low -- °F
--% Chance of Precip.
Yesterday
High -- | Low -- °F
Precip. -- in
7:17 AM 5:43 PM
Waxing Gibbous, 97% visible
Pressure 30.14 in
Visibility 10.0 miles
Clouds Overcast 1900 ft
Windchill 10 °F
Dew Point 13 °F
Humidity 70%
Rainfall 0.45 in
Snow Depth Not available.
UV 0 out of 12
Pollen 3.60 out of 12
Air Quality Not available.
Flu Activity Not available.
METAR KASG 020248Z 30017G25KT 10SM OVC019 M06/M10 A3014

More Conditions Fewer Conditions

Pressure 30.14 in
Visibility 10.0 miles
Clouds Overcast 1900 ft
Windchill 10 °F
Dew Point 13 °F
Humidity 70%
Rainfall 0.45 in
Snow Depth Not available.
UV 0 out of 12
Pollen 3.60 out of 12
Air Quality Not available.
Flu Activity Not available.
METAR KASG 020248Z 30017G25KT 10SM OVC019 M06/M10 A3014

More Conditions Fewer Conditions

10-Day Weather Forecast

Almanac

Astronomy

Feb. 01, 2015 Rise Set
Actual Time
Civil Twilight
Nautical Twilight
Astronomical Twilight
Moon
Length of Visible Light
Length of Day
Tomorrow will be .
, % of the Moon is Illuminated

Today's Extremes

State Highs State Lows

Community

WunderPhotos

Upload Photos

1,792,659 photos uploaded!

WunderBlogs® & News

Nearby

Air Quality

  Air Quality AQ Index Pollutant
Not available.

Snow Depth

Station Depth Elevation

Earthquake Activity

City Distance Mag. Time & Date
Minimum magnitude displayed is 2.5.

Coastal Water Temperatures

Place Temperature

Nearby Weather Stations